createdAt,value
2022-11-08T00:00:43.397Z,8.13
2022-11-08T00:03:10.721Z,8.23
2022-11-08T00:05:59.896Z,9.00
2022-11-08T00:08:45.326Z,9.10
2022-11-08T00:11:31.723Z,8.48
2022-11-08T00:14:01.549Z,9.73
2022-11-08T00:16:29.682Z,8.65
2022-11-08T00:18:57.038Z,8.75
2022-11-08T00:21:26.987Z,8.82
2022-11-08T00:23:54.423Z,8.40
2022-11-08T00:26:21.439Z,8.77
2022-11-08T00:28:48.545Z,8.43
2022-11-08T00:31:15.585Z,8.20
2022-11-08T00:33:48.154Z,8.82
2022-11-08T00:36:15.480Z,7.57
2022-11-08T00:38:44.010Z,8.30
2022-11-08T00:41:14.724Z,8.40
2022-11-08T00:43:45.322Z,6.80
2022-11-08T00:46:17.536Z,8.32
2022-11-08T00:48:44.618Z,7.60
2022-11-08T00:51:17.686Z,7.90
2022-11-08T00:53:47.094Z,7.70
2022-11-08T00:56:17.247Z,8.13
2022-11-08T00:58:44.437Z,7.95
2022-11-08T01:01:16.381Z,8.35
2022-11-08T01:03:47.916Z,7.78
2022-11-08T01:06:17.550Z,8.45
2022-11-08T01:08:49.956Z,7.10
2022-11-08T01:11:20.875Z,7.43
2022-11-08T01:13:49.055Z,8.00
2022-11-08T01:16:24.085Z,7.78
2022-11-08T01:18:53.848Z,7.63
2022-11-08T01:21:21.938Z,7.47
2022-11-08T01:23:49.734Z,7.50
2022-11-08T01:26:22.437Z,7.07
2022-11-08T01:28:50.294Z,7.77
2022-11-08T01:31:21.818Z,7.32
2022-11-08T01:33:52.111Z,7.10
2022-11-08T01:36:22.365Z,8.20
2022-11-08T01:38:52.322Z,7.80
2022-11-08T01:41:26.665Z,7.30
2022-11-08T01:43:59.523Z,7.63
2022-11-08T01:46:41.232Z,8.27
2022-11-08T01:49:10.903Z,8.32
2022-11-08T01:51:45.819Z,8.05
2022-11-08T01:54:21.985Z,7.97
2022-11-08T01:56:51.971Z,8.05
2022-11-08T01:59:19.860Z,7.93
2022-11-08T02:01:47.856Z,8.80
2022-11-08T02:04:15.833Z,7.22
2022-11-08T02:06:44.661Z,7.65
2022-11-08T02:09:15.605Z,7.30
2022-11-08T02:11:46.512Z,7.30
2022-11-08T02:14:14.699Z,6.93
2022-11-08T02:16:41.833Z,7.38
2022-11-08T02:19:15.485Z,7.22
2022-11-08T02:24:17.826Z,7.05
2022-11-08T02:26:46.497Z,7.40
2022-11-08T02:29:29.747Z,7.78
2022-11-08T02:31:57.813Z,7.63
2022-11-08T02:34:35.137Z,7.40
2022-11-08T02:37:04.183Z,7.47
2022-11-08T02:39:33.127Z,7.82
2022-11-08T02:42:03.346Z,7.05
2022-11-08T02:44:30.448Z,8.20
2022-11-08T02:46:57.579Z,6.72
2022-11-08T02:49:24.837Z,7.75
2022-11-08T02:51:54.708Z,7.93
2022-11-08T02:54:21.767Z,7.53
2022-11-08T02:56:48.927Z,6.65
2022-11-08T03:02:28.486Z,7.85
2022-11-08T03:05:01.380Z,7.00
2022-11-08T03:07:38.428Z,7.68
2022-11-08T03:10:12.783Z,6.85
2022-11-08T03:12:44.599Z,7.35
2022-11-08T03:15:17.228Z,7.15
2022-11-08T03:17:55.334Z,7.03
2022-11-08T03:20:29.607Z,6.75
2022-11-08T03:23:08.402Z,6.95
2022-11-08T03:25:46.633Z,6.55
2022-11-08T03:28:20.303Z,7.05
2022-11-08T03:30:54.869Z,6.90
2022-11-08T03:33:25.097Z,7.20
2022-11-08T03:35:55.416Z,7.20
2022-11-08T03:38:28.395Z,6.57
2022-11-08T03:41:00.793Z,7.65
2022-11-08T03:43:31.155Z,7.20
2022-11-08T03:46:10.908Z,7.72
2022-11-08T03:48:40.736Z,7.38
2022-11-08T03:51:13.497Z,8.13
2022-11-08T03:53:43.967Z,8.03
2022-11-08T03:56:14.383Z,7.13
2022-11-08T03:58:42.764Z,7.68
2022-11-08T04:01:10.174Z,7.10
2022-11-08T04:03:40.862Z,7.78
2022-11-08T04:06:08.652Z,8.00
2022-11-08T04:08:35.843Z,7.72
2022-11-08T04:11:22.851Z,7.50
2022-11-08T04:14:13.396Z,6.90
2022-11-08T04:16:40.811Z,8.00
2022-11-08T04:19:26.554Z,8.25
2022-11-08T04:21:55.479Z,8.00
2022-11-08T04:24:24.088Z,7.45
2022-11-08T04:26:51.723Z,7.88
2022-11-08T04:29:18.877Z,7.43
2022-11-08T04:31:46.034Z,8.00
2022-11-08T04:34:13.386Z,7.50
2022-11-08T04:36:40.632Z,6.90
2022-11-08T04:39:10.732Z,7.55
2022-11-08T04:41:38.118Z,7.80
2022-11-08T04:44:05.331Z,6.43
2022-11-08T04:46:32.571Z,6.70
2022-11-08T04:49:00.885Z,6.78
2022-11-08T04:51:30.542Z,7.97
2022-11-08T04:54:00.110Z,7.05
2022-11-08T04:56:29.548Z,7.50
2022-11-08T04:58:58.745Z,7.20
2022-11-08T05:04:23.056Z,8.02
2022-11-08T05:06:59.066Z,7.60
2022-11-08T05:09:40.189Z,7.32
2022-11-08T05:12:10.749Z,7.28
2022-11-08T05:14:48.969Z,6.82
2022-11-08T05:17:19.314Z,7.15
2022-11-08T05:20:08.793Z,7.38
2022-11-08T05:23:00.659Z,7.50
2022-11-08T05:25:37.445Z,6.18
2022-11-08T05:28:18.021Z,7.07
2022-11-08T05:30:58.116Z,7.07
2022-11-08T05:33:32.918Z,7.22
2022-11-08T05:36:08.561Z,7.20
2022-11-08T05:38:41.343Z,7.20
2022-11-08T05:41:23.069Z,7.57
2022-11-08T05:44:00.015Z,7.72
2022-11-08T05:46:53.797Z,7.43
2022-11-08T05:49:24.017Z,7.18
2022-11-08T05:51:54.490Z,7.90
2022-11-08T05:54:24.565Z,7.15
2022-11-08T05:56:59.660Z,7.05
2022-11-08T05:59:31.867Z,6.50
2022-11-08T06:02:04.149Z,6.60
2022-11-08T06:04:42.790Z,6.75
2022-11-08T06:07:12.727Z,6.85
2022-11-08T06:09:48.382Z,7.07
2022-11-08T06:12:17.284Z,7.18
2022-11-08T06:14:47.015Z,7.63
2022-11-08T06:17:26.346Z,7.25
2022-11-08T06:19:59.397Z,7.30
2022-11-08T06:22:37.137Z,7.13
2022-11-08T06:25:14.118Z,7.45
2022-11-08T06:27:47.194Z,7.05
2022-11-08T06:30:23.943Z,6.93
2022-11-08T06:32:51.302Z,6.75
2022-11-08T06:35:19.643Z,6.95
2022-11-08T06:37:59.056Z,6.80
2022-11-08T06:40:35.391Z,7.50
2022-11-08T06:43:06.502Z,6.95
2022-11-08T06:45:43.028Z,7.32
2022-11-08T06:48:10.380Z,7.03
2022-11-08T06:50:37.476Z,7.45
2022-11-08T06:53:12.536Z,6.80
2022-11-08T06:55:39.840Z,7.85
2022-11-08T06:58:10.741Z,7.88
2022-11-08T07:00:38.531Z,7.38
2022-11-08T07:03:05.732Z,7.68
2022-11-08T07:05:37.232Z,7.15
2022-11-08T07:08:04.817Z,7.80
2022-11-08T07:10:36.589Z,7.90
2022-11-08T07:13:14.948Z,7.00
2022-11-08T07:15:43.367Z,6.90
2022-11-08T07:18:16.980Z,7.93
2022-11-08T07:20:44.512Z,7.20
2022-11-08T07:23:14.091Z,6.88
2022-11-08T07:25:45.287Z,7.75
2022-11-08T07:28:20.431Z,8.05
2022-11-08T07:30:49.287Z,7.88
2022-11-08T07:33:18.197Z,7.30
2022-11-08T07:35:48.701Z,7.25
2022-11-08T07:38:16.324Z,8.65
2022-11-08T07:40:47.029Z,7.88
2022-11-08T07:43:16.835Z,7.90
2022-11-08T07:45:47.324Z,7.80
2022-11-08T07:48:14.772Z,6.93
2022-11-08T07:50:43.009Z,7.93
2022-11-08T07:53:11.148Z,7.13
2022-11-08T07:55:40.822Z,8.02
2022-11-08T07:58:11.763Z,7.50
2022-11-08T08:00:40.766Z,7.45
2022-11-08T08:03:10.567Z,8.18
2022-11-08T08:05:43.204Z,7.70
2022-11-08T08:08:12.815Z,8.07
2022-11-08T08:10:41.204Z,7.50
2022-11-08T08:13:11.207Z,7.57
2022-11-08T08:15:41.364Z,8.15
2022-11-08T08:18:12.182Z,7.55
2022-11-08T08:20:42.419Z,7.97
2022-11-08T08:23:12.958Z,7.57
2022-11-08T08:25:41.042Z,6.82
2022-11-08T08:28:09.722Z,8.32
2022-11-08T08:30:37.396Z,8.30
2022-11-08T08:33:27.496Z,8.73
2022-11-08T08:35:55.617Z,8.95
2022-11-08T08:38:23.393Z,8.43
2022-11-08T08:40:51.496Z,9.40
2022-11-08T08:43:19.436Z,9.70
2022-11-08T08:45:47.025Z,7.90
2022-11-08T08:48:14.237Z,7.40
2022-11-08T08:50:44.396Z,7.13
2022-11-08T08:53:11.830Z,7.43
2022-11-08T08:55:43.586Z,7.47
2022-11-08T08:58:14.691Z,7.38
2022-11-08T09:03:34.343Z,7.78
2022-11-08T09:06:02.347Z,7.50
2022-11-08T09:08:30.615Z,8.15
2022-11-08T09:11:01.508Z,8.48
2022-11-08T09:13:35.422Z,12.20
2022-11-08T09:16:12.787Z,11.45
2022-11-08T09:18:54.355Z,10.90
2022-11-08T09:21:28.267Z,7.82
2022-11-08T09:24:05.137Z,8.52
2022-11-08T09:26:41.025Z,8.23
2022-11-08T09:29:12.712Z,7.55
2022-11-08T09:31:43.822Z,7.03
2022-11-08T09:34:17.733Z,9.27
2022-11-08T09:36:59.287Z,6.88
2022-11-08T09:39:43.651Z,7.63
2022-11-08T09:42:48.970Z,7.80
2022-11-08T09:45:49.166Z,8.95
2022-11-08T09:48:45.479Z,8.50
2022-11-08T09:51:26.599Z,7.90
2022-11-08T09:54:04.024Z,7.50
2022-11-08T09:56:41.630Z,8.35
2022-11-08T09:59:54.056Z,8.77
2022-11-08T10:02:28.166Z,9.48
2022-11-08T10:05:17.643Z,9.32
2022-11-08T10:08:01.060Z,10.02
2022-11-08T10:10:51.265Z,8.38
2022-11-08T10:13:49.065Z,7.85
2022-11-08T10:16:52.415Z,8.68
2022-11-08T10:19:38.235Z,12.30
2022-11-08T10:22:26.239Z,15.85
2022-11-08T10:25:32.478Z,10.95
2022-11-08T10:28:17.459Z,8.48
2022-11-08T10:31:05.692Z,6.90
2022-11-08T10:34:15.233Z,7.57
2022-11-08T10:36:50.362Z,8.77
2022-11-08T10:39:34.526Z,7.15
2022-11-08T10:42:16.737Z,8.60
2022-11-08T10:44:57.878Z,7.95
2022-11-08T10:47:33.147Z,9.00
2022-11-08T10:50:25.886Z,9.10
2022-11-08T10:53:03.283Z,9.32
2022-11-08T10:55:41.466Z,8.65
2022-11-08T10:58:40.784Z,8.20
2022-11-08T11:01:29.308Z,5.78
2022-11-08T11:04:28.965Z,4.13
2022-11-08T11:07:07.071Z,4.10
2022-11-08T11:09:43.302Z,4.22
2022-11-08T11:12:15.150Z,4.38
2022-11-08T11:14:59.266Z,4.25
2022-11-08T11:17:41.222Z,3.65
2022-11-08T11:20:29.476Z,4.53
2022-11-08T11:23:10.303Z,4.10
2022-11-08T11:25:37.508Z,4.60
2022-11-08T11:28:08.092Z,3.75
2022-11-08T11:30:38.895Z,5.25
2022-11-08T11:33:24.921Z,3.83
2022-11-08T11:36:19.410Z,4.18
2022-11-08T11:39:06.380Z,4.55
2022-11-08T11:42:17.762Z,5.97
2022-11-08T11:45:08.772Z,4.70
2022-11-08T11:47:44.724Z,4.13
2022-11-08T11:50:42.845Z,4.88
2022-11-08T11:53:39.152Z,4.57
2022-11-08T11:56:18.627Z,3.80
2022-11-08T11:58:50.455Z,3.58
2022-11-08T12:01:40.480Z,3.60
2022-11-08T12:04:40.093Z,2.58
2022-11-08T12:07:42.890Z,2.55
2022-11-08T12:10:56.365Z,2.95
2022-11-08T12:13:37.101Z,2.40
2022-11-08T12:16:15.690Z,2.70
2022-11-08T12:19:21.411Z,2.20
2022-11-08T12:21:57.671Z,2.95
2022-11-08T12:24:42.437Z,2.47
2022-11-08T12:27:43.317Z,2.63
2022-11-08T12:30:35.871Z,3.03
2022-11-08T12:33:22.306Z,2.55
2022-11-08T12:36:16.837Z,3.20
2022-11-08T12:38:44.628Z,2.40
2022-11-08T12:41:40.860Z,3.00
2022-11-08T12:44:40.678Z,1.83
2022-11-08T12:47:54.436Z,3.25
2022-11-08T12:50:46.658Z,2.00
2022-11-08T12:53:56.482Z,1.80
2022-11-08T12:56:49.028Z,2.53
2022-11-08T12:59:31.977Z,2.22
2022-11-08T13:02:12.152Z,2.05
2022-11-08T13:05:21.691Z,2.08
2022-11-08T13:08:05.609Z,2.25
2022-11-08T13:11:18.934Z,2.35
2022-11-08T13:14:09.465Z,2.03
2022-11-08T13:16:45.554Z,2.25
2022-11-08T13:19:30.400Z,3.13
2022-11-08T13:21:57.693Z,2.80
2022-11-08T13:24:50.079Z,2.22
2022-11-08T13:27:25.908Z,3.03
2022-11-08T13:30:03.985Z,3.22
2022-11-08T13:32:53.874Z,2.65
2022-11-08T13:35:44.240Z,2.50
2022-11-08T13:38:17.500Z,2.90
2022-11-08T13:41:03.357Z,2.30
2022-11-08T13:43:41.353Z,1.98
2022-11-08T13:46:23.122Z,2.15
2022-11-08T13:49:07.600Z,2.50
2022-11-08T13:51:38.062Z,2.75
2022-11-08T13:54:31.364Z,2.10
2022-11-08T13:57:02.947Z,2.13
2022-11-08T13:59:36.239Z,2.50
2022-11-08T14:04:40.980Z,2.42
2022-11-08T14:07:27.689Z,2.38
2022-11-08T14:10:11.962Z,3.10
2022-11-08T14:12:57.218Z,2.63
2022-11-08T14:15:36.373Z,2.50
2022-11-08T14:18:27.137Z,2.53
2022-11-08T14:20:58.017Z,2.97
2022-11-08T14:23:33.102Z,2.55
2022-11-08T14:26:27.023Z,2.72
2022-11-08T14:28:54.510Z,3.40
2022-11-08T14:31:35.147Z,2.85
2022-11-08T14:34:02.806Z,3.55
2022-11-08T14:36:32.249Z,3.33
2022-11-08T14:39:20.932Z,2.72
2022-11-08T14:41:55.402Z,2.75
2022-11-08T14:44:24.070Z,3.90
2022-11-08T14:46:54.780Z,2.90
2022-11-08T14:49:30.907Z,2.70
2022-11-08T14:52:19.351Z,3.20
2022-11-08T14:55:10.475Z,3.28
2022-11-08T14:57:47.172Z,3.45
2022-11-08T15:00:21.795Z,3.63
2022-11-08T15:02:55.311Z,4.10
2022-11-08T15:07:54.953Z,3.38
2022-11-08T15:10:22.372Z,3.58
2022-11-08T15:12:50.114Z,3.20
2022-11-08T15:15:25.569Z,3.50
2022-11-08T15:18:18.092Z,3.55
2022-11-08T15:21:06.399Z,3.75
2022-11-08T15:23:47.775Z,3.58
2022-11-08T15:26:38.074Z,4.28
2022-11-08T15:29:22.895Z,3.53
2022-11-08T15:32:01.166Z,3.10
2022-11-08T15:34:41.165Z,3.60
2022-11-08T15:37:32.753Z,3.85
2022-11-08T15:40:07.800Z,4.13
2022-11-08T15:42:38.442Z,3.60
2022-11-08T15:45:32.408Z,3.92
2022-11-08T15:48:27.904Z,4.80
2022-11-08T15:51:04.996Z,3.63
2022-11-08T15:53:34.876Z,4.10
2022-11-08T15:56:04.968Z,4.47
2022-11-08T15:58:42.667Z,4.50
2022-11-08T16:01:23.215Z,4.47
2022-11-08T16:04:02.456Z,5.00
2022-11-08T16:06:37.212Z,4.32
2022-11-08T16:09:09.813Z,8.85
2022-11-08T16:11:43.608Z,4.70
2022-11-08T16:14:27.219Z,4.78
2022-11-08T16:16:55.963Z,6.13
2022-11-08T16:19:29.026Z,5.75
2022-11-08T16:21:59.525Z,5.75
2022-11-08T16:24:34.495Z,5.18
2022-11-08T16:27:12.843Z,5.57
2022-11-08T16:29:40.343Z,5.38
2022-11-08T16:32:12.988Z,6.00
2022-11-08T16:34:48.568Z,5.40
2022-11-08T16:37:16.349Z,5.60
2022-11-08T16:39:52.050Z,6.10
2022-11-08T16:42:21.544Z,5.85
2022-11-08T16:44:56.890Z,7.27
2022-11-08T16:47:29.185Z,5.80
2022-11-08T16:50:07.910Z,6.75
2022-11-08T16:52:36.386Z,6.30
2022-11-08T16:55:11.692Z,6.35
2022-11-08T16:57:41.319Z,7.13
2022-11-08T17:00:19.881Z,6.72
2022-11-08T17:02:53.133Z,7.03
2022-11-08T17:05:23.924Z,6.35
2022-11-08T17:07:54.680Z,7.07
2022-11-08T17:10:30.286Z,6.53
2022-11-08T17:12:58.038Z,6.70
2022-11-08T17:15:27.738Z,7.60
2022-11-08T17:17:56.272Z,7.20
2022-11-08T17:20:26.944Z,8.18
2022-11-08T17:22:54.594Z,8.38
2022-11-08T17:25:26.308Z,8.15
2022-11-08T17:27:53.791Z,8.48
2022-11-08T17:30:26.650Z,7.63
2022-11-08T17:32:55.091Z,8.57
2022-11-08T17:35:28.813Z,10.27
2022-11-08T17:37:56.402Z,8.65
2022-11-08T17:40:26.911Z,9.43
2022-11-08T17:42:54.071Z,8.25
2022-11-08T17:45:23.679Z,8.70
2022-11-08T17:47:56.423Z,8.48
2022-11-08T17:50:23.860Z,9.90
2022-11-08T17:52:57.017Z,9.90
2022-11-08T17:55:30.435Z,9.48
2022-11-08T18:00:25.024Z,9.27
2022-11-08T18:02:54.707Z,9.40
2022-11-08T18:05:23.692Z,9.05
2022-11-08T18:07:51.020Z,9.27
2022-11-08T18:10:21.271Z,9.32
2022-11-08T18:12:48.413Z,9.65
2022-11-08T18:15:18.670Z,9.48
2022-11-08T18:17:45.744Z,9.82
2022-11-08T18:20:15.515Z,8.35
2022-11-08T18:22:43.766Z,9.70
2022-11-08T18:25:11.056Z,9.20
2022-11-08T18:27:40.792Z,10.38
2022-11-08T18:30:08.351Z,9.80
2022-11-08T18:32:37.013Z,9.40
2022-11-08T18:35:06.798Z,9.20
2022-11-08T18:37:48.974Z,9.98
2022-11-08T18:40:31.155Z,9.40
2022-11-08T18:42:58.314Z,10.38
2022-11-08T18:45:28.658Z,9.30
2022-11-08T18:48:03.430Z,9.05
2022-11-08T18:50:33.987Z,10.18
2022-11-08T18:53:03.963Z,10.43
2022-11-08T18:55:33.807Z,9.38
2022-11-08T18:58:02.243Z,9.80
2022-11-08T19:00:35.201Z,9.43
2022-11-08T19:03:02.706Z,9.02
2022-11-08T19:05:35.081Z,10.50
2022-11-08T19:08:02.624Z,10.18
2022-11-08T19:10:33.161Z,10.35
2022-11-08T19:13:01.115Z,9.82
2022-11-08T19:15:28.521Z,9.32
2022-11-08T19:17:56.164Z,9.25
2022-11-08T19:20:24.203Z,10.02
2022-11-08T19:22:56.858Z,10.55
2022-11-08T19:25:26.708Z,9.63
2022-11-08T19:28:04.407Z,9.18
2022-11-08T19:30:37.403Z,8.63
2022-11-08T19:33:09.498Z,9.90
2022-11-08T19:35:40.085Z,10.07
2022-11-08T19:38:19.559Z,9.32
2022-11-08T19:40:51.951Z,9.35
2022-11-08T19:43:19.541Z,10.40
2022-11-08T19:45:57.183Z,9.95
2022-11-08T19:48:30.987Z,9.45
2022-11-08T19:51:02.143Z,9.70
2022-11-08T19:53:33.154Z,10.57
2022-11-08T19:56:02.202Z,9.95
2022-11-08T19:58:31.436Z,11.15
2022-11-08T20:01:06.753Z,11.38
2022-11-08T20:03:38.250Z,11.38
2022-11-08T20:06:09.897Z,11.50
2022-11-08T20:08:41.437Z,10.60
2022-11-08T20:11:23.484Z,11.02
2022-11-08T20:13:51.337Z,12.00
2022-11-08T20:16:25.684Z,12.52
2022-11-08T20:19:05.618Z,11.70
2022-11-08T20:21:42.893Z,11.05
2022-11-08T20:24:20.281Z,12.23
2022-11-08T20:26:53.059Z,13.35
2022-11-08T20:29:25.826Z,13.27
2022-11-08T20:32:03.777Z,11.60
2022-11-08T20:34:41.210Z,13.50
2022-11-08T20:37:17.478Z,13.90
2022-11-08T20:39:54.740Z,12.05
2022-11-08T20:42:24.992Z,12.00
2022-11-08T20:44:55.417Z,12.95
2022-11-08T20:47:22.986Z,11.57
2022-11-08T20:49:50.588Z,11.82
2022-11-08T20:52:23.881Z,12.27
2022-11-08T20:54:51.439Z,12.57
2022-11-08T20:57:19.184Z,11.70
2022-11-08T20:59:54.991Z,13.43
2022-11-08T21:02:22.989Z,13.85
2022-11-08T21:04:50.666Z,12.88
2022-11-08T21:08:01.215Z,13.15
2022-11-08T21:10:35.664Z,13.35
2022-11-08T21:13:04.892Z,12.27
2022-11-08T21:15:38.350Z,20.23
2022-11-08T21:18:05.917Z,17.70
2022-11-08T21:20:35.453Z,16.20
2022-11-08T21:23:03.824Z,15.15
2022-11-08T21:25:35.362Z,14.65
2022-11-08T21:28:17.011Z,14.32
2022-11-08T21:30:52.701Z,15.20
2022-11-08T21:33:26.293Z,14.52
2022-11-08T21:35:59.596Z,15.40
2022-11-08T21:38:33.318Z,15.30
2022-11-08T21:41:11.306Z,15.85
2022-11-08T21:43:43.930Z,15.15
2022-11-08T21:46:30.798Z,15.77
2022-11-08T21:49:08.171Z,14.43
2022-11-08T21:51:38.484Z,15.23
2022-11-08T21:54:09.557Z,15.18
2022-11-08T21:56:40.038Z,15.25
2022-11-08T21:59:13.776Z,15.68
2022-11-08T22:01:47.602Z,15.68
2022-11-08T22:04:17.989Z,15.48
2022-11-08T22:06:47.951Z,14.15
2022-11-08T22:09:15.946Z,14.57
2022-11-08T22:11:43.227Z,16.73
2022-11-08T22:14:13.536Z,15.30
2022-11-08T22:16:42.774Z,15.20
2022-11-08T22:19:11.847Z,14.38
2022-11-08T22:21:41.032Z,14.20
2022-11-08T22:24:22.248Z,15.88
2022-11-08T22:26:51.787Z,14.85
2022-11-08T22:29:19.949Z,14.38
2022-11-08T22:31:48.258Z,14.02
2022-11-08T22:34:16.307Z,13.90
2022-11-08T22:36:45.630Z,12.35
2022-11-08T22:39:21.659Z,13.85
2022-11-08T22:41:52.156Z,13.38
2022-11-08T22:44:20.362Z,12.88
2022-11-08T22:46:48.303Z,12.25
2022-11-08T22:49:19.009Z,12.45
2022-11-08T22:51:46.450Z,11.98
2022-11-08T22:54:16.350Z,12.50
2022-11-08T22:56:44.491Z,10.77
2022-11-08T22:59:15.153Z,11.73
2022-11-08T23:01:42.533Z,12.23
2022-11-08T23:04:11.522Z,10.38
2022-11-08T23:06:39.606Z,11.50
2022-11-08T23:09:08.452Z,11.55
2022-11-08T23:11:54.293Z,11.88
2022-11-08T23:14:40.399Z,12.05
2022-11-08T23:17:08.472Z,11.57
2022-11-08T23:19:54.302Z,11.40
2022-11-08T23:22:42.884Z,12.35
2022-11-08T23:25:11.532Z,11.88
2022-11-08T23:27:57.023Z,11.60
2022-11-08T23:30:42.751Z,12.55
2022-11-08T23:33:10.243Z,11.75
2022-11-08T23:35:37.765Z,11.68
2022-11-08T23:38:06.201Z,12.40
2022-11-08T23:40:51.589Z,11.93
2022-11-08T23:43:39.904Z,12.75
2022-11-08T23:46:12.676Z,11.13
2022-11-08T23:48:41.127Z,12.63
2022-11-08T23:51:10.227Z,12.10
2022-11-08T23:53:37.697Z,12.00
2022-11-08T23:56:07.851Z,11.85
2022-11-08T23:58:35.045Z,12.57
